Terminal Aerodrome Forecast
Issued by NWS

Home | Current Version | Previous Version | Text Only | Print | Product List | Glossary On
Versions: 1 2 3 4 5 6 7 8 9 10 11 12
000
FTUS45 KSLC 251724
TAFENV
TAF
KENV 251724Z 2518/2618 07008KT P6SM SKC
     FM251900 13007KT P6SM SKC
     FM252000 20010G16KT P6SM FEW090 FEW120
     FM260500 29010KT P6SM SCT080 BKN120
     FM261500 34010G18KT P6SM SCT080
      AMD LTD TO CLD VIS AND WIND=

USA.gov is the U.S. government's official web portal to all federal, state and local government web resources and services.